createdAt,value
2018-09-13T00:02:27.018Z,83.08
2018-09-13T00:04:55.485Z,82.77
2018-09-13T00:07:23.990Z,83.27
2018-09-13T00:09:52.601Z,83.01
2018-09-13T00:12:21.064Z,82.67
2018-09-13T00:14:49.589Z,82.95
2018-09-13T00:17:18.113Z,83.93
2018-09-13T00:19:48.127Z,83.37
2018-09-13T00:22:16.638Z,83.49
2018-09-13T00:24:45.368Z,83.19
2018-09-13T00:27:13.813Z,83.22
2018-09-13T00:29:42.352Z,82.66
2018-09-13T00:32:10.848Z,82.83
2018-09-13T00:34:39.399Z,83.48
2018-09-13T00:37:08.000Z,83.87
2018-09-13T00:39:36.476Z,82.95
2018-09-13T00:42:05.008Z,83.57
2018-09-13T00:44:33.555Z,83.59
2018-09-13T00:47:02.065Z,83.37
2018-09-13T00:49:30.553Z,83.39
2018-09-13T00:51:59.087Z,84.13
2018-09-13T00:54:27.593Z,83.64
2018-09-13T00:56:56.058Z,84.68
2018-09-13T00:59:25.263Z,84.98
2018-09-13T01:01:54.713Z,85.05
2018-09-13T01:04:23.206Z,83.56
2018-09-13T01:06:51.684Z,83.71
2018-09-13T01:09:21.092Z,84.20
2018-09-13T01:11:49.540Z,84.45
2018-09-13T01:14:18.105Z,84.64
2018-09-13T01:16:47.549Z,84.37
2018-09-13T01:19:16.108Z,84.75
2018-09-13T01:21:44.587Z,85.42
2018-09-13T01:24:13.095Z,85.48
2018-09-13T01:26:41.596Z,85.89
2018-09-13T01:29:10.613Z,85.54
2018-09-13T01:31:39.283Z,84.12
2018-09-13T01:34:07.736Z,84.85
2018-09-13T01:36:37.004Z,84.72
2018-09-13T01:39:08.185Z,85.96
2018-09-13T01:41:36.858Z,85.79
2018-09-13T01:44:05.554Z,84.95
2018-09-13T01:46:34.130Z,85.75
2018-09-13T01:49:03.557Z,85.38
2018-09-13T01:51:32.055Z,85.06
2018-09-13T01:54:00.568Z,84.29
2018-09-13T01:56:29.108Z,84.62
2018-09-13T01:58:58.137Z,85.25
2018-09-13T02:01:26.644Z,85.02
2018-09-13T02:03:55.514Z,84.53
2018-09-13T02:06:23.949Z,84.67
2018-09-13T02:08:52.432Z,84.40
2018-09-13T02:11:21.034Z,84.66
2018-09-13T02:13:50.065Z,85.89
2018-09-13T02:16:18.570Z,86.27
2018-09-13T02:18:47.140Z,85.36
2018-09-13T02:21:15.695Z,85.47
2018-09-13T02:23:44.735Z,85.98
2018-09-13T02:26:13.499Z,86.01
2018-09-13T02:28:42.296Z,85.78
2018-09-13T02:31:10.765Z,85.55
2018-09-13T02:33:39.282Z,86.08
2018-09-13T02:36:07.776Z,85.14
2018-09-13T02:38:36.261Z,85.09
2018-09-13T02:41:04.807Z,84.40
2018-09-13T02:43:33.304Z,86.09
2018-09-13T02:46:01.928Z,85.93
2018-09-13T02:48:30.450Z,86.13
2018-09-13T02:50:59.430Z,86.74
2018-09-13T02:53:27.927Z,84.91
2018-09-13T02:55:57.049Z,86.32
2018-09-13T02:58:25.592Z,85.85
2018-09-13T03:00:54.112Z,85.85
2018-09-13T03:03:22.579Z,86.05
2018-09-13T03:05:51.187Z,85.75
2018-09-13T03:08:19.762Z,85.62
2018-09-13T03:10:48.235Z,85.14
2018-09-13T03:13:16.743Z,85.25
2018-09-13T03:15:45.814Z,85.76
2018-09-13T03:18:14.370Z,85.37
2018-09-13T03:20:43.622Z,85.42
2018-09-13T03:23:12.145Z,85.06
2018-09-13T03:25:40.667Z,85.48
2018-09-13T03:28:09.194Z,85.50
2018-09-13T03:30:38.315Z,86.33
2018-09-13T03:33:07.000Z,85.81
2018-09-13T03:35:35.531Z,85.66
2018-09-13T03:38:04.109Z,85.94
2018-09-13T03:40:32.575Z,85.71
2018-09-13T03:43:01.147Z,85.90
2018-09-13T03:45:29.695Z,85.98
2018-09-13T03:47:58.260Z,85.97
2018-09-13T03:50:26.791Z,87.01
2018-09-13T03:52:55.299Z,86.44
2018-09-13T03:55:23.800Z,85.96
2018-09-13T03:57:52.329Z,85.82
2018-09-13T04:00:20.935Z,86.27
2018-09-13T04:02:49.520Z,86.61
2018-09-13T04:05:18.062Z,86.80
2018-09-13T04:07:46.526Z,86.60
2018-09-13T04:10:14.995Z,86.53
2018-09-13T04:12:43.568Z,86.20
2018-09-13T04:15:12.050Z,86.44
2018-09-13T04:17:40.543Z,86.18
2018-09-13T04:20:09.156Z,86.31
2018-09-13T04:22:37.705Z,86.40
2018-09-13T04:25:06.227Z,87.76
2018-09-13T04:27:34.687Z,86.91
2018-09-13T04:30:03.199Z,86.63
2018-09-13T04:32:31.741Z,86.70
2018-09-13T04:35:00.253Z,86.78
2018-09-13T04:37:28.832Z,86.84
2018-09-13T04:39:57.510Z,86.88
2018-09-13T04:42:26.069Z,87.08
2018-09-13T04:44:54.569Z,86.29
2018-09-13T04:47:23.704Z,86.98
2018-09-13T04:49:52.244Z,86.79
2018-09-13T04:52:20.816Z,86.66
2018-09-13T04:54:49.327Z,86.06
2018-09-13T04:57:17.867Z,86.60
2018-09-13T04:59:46.465Z,86.16
2018-09-13T05:02:15.597Z,86.13
2018-09-13T05:04:44.108Z,86.58
2018-09-13T05:07:13.447Z,86.29
2018-09-13T05:09:41.958Z,86.61
2018-09-13T05:12:10.504Z,86.18
2018-09-13T05:14:39.002Z,86.34
2018-09-13T05:17:07.592Z,86.64
2018-09-13T05:19:36.085Z,86.91
2018-09-13T05:22:04.648Z,86.19
2018-09-13T05:24:33.126Z,86.34
2018-09-13T05:27:01.645Z,86.58
2018-09-13T05:29:30.144Z,86.64
2018-09-13T05:31:58.633Z,85.43
2018-09-13T05:34:27.613Z,86.35
2018-09-13T05:36:56.936Z,86.18
2018-09-13T05:39:25.459Z,86.99
2018-09-13T05:41:54.036Z,86.83
2018-09-13T05:44:22.497Z,87.19
2018-09-13T05:46:51.056Z,86.29
2018-09-13T05:49:19.561Z,86.29
2018-09-13T05:51:48.092Z,87.24
2018-09-13T05:54:16.612Z,85.97
2018-09-13T05:56:47.854Z,85.19
2018-09-13T05:59:17.513Z,85.07
2018-09-13T06:01:46.422Z,84.34
2018-09-13T06:04:14.941Z,85.22
2018-09-13T06:06:43.427Z,84.30
2018-09-13T06:09:11.885Z,85.04
2018-09-13T06:11:40.392Z,85.43
2018-09-13T06:14:08.877Z,84.62
2018-09-13T06:16:37.725Z,84.55
2018-09-13T06:19:06.300Z,84.32
2018-09-13T06:21:34.765Z,84.23
2018-09-13T06:24:03.504Z,86.34
2018-09-13T06:26:32.074Z,85.16
2018-09-13T06:29:00.562Z,83.83
2018-09-13T06:31:29.075Z,83.17
2018-09-13T06:33:57.597Z,82.05
2018-09-13T06:36:26.137Z,81.45
2018-09-13T06:38:54.637Z,83.52
2018-09-13T06:41:23.101Z,84.52
2018-09-13T06:43:51.744Z,84.19
2018-09-13T06:46:20.256Z,82.95
2018-09-13T06:48:48.811Z,82.38
2018-09-13T06:51:17.364Z,81.04
2018-09-13T06:53:46.483Z,81.50
2018-09-13T06:56:14.980Z,80.70
2018-09-13T06:58:43.523Z,83.40
2018-09-13T07:01:12.772Z,83.41
2018-09-13T07:03:41.564Z,84.46
2018-09-13T07:06:10.077Z,83.85
2018-09-13T07:08:39.239Z,84.51
2018-09-13T07:11:07.806Z,83.65
2018-09-13T07:13:36.462Z,83.47
2018-09-13T07:16:05.544Z,82.20
2018-09-13T07:18:34.075Z,81.45
2018-09-13T07:21:03.481Z,81.86
2018-09-13T07:23:32.019Z,81.87
2018-09-13T07:26:00.436Z,80.75
2018-09-13T07:28:28.981Z,79.22
2018-09-13T07:30:57.634Z,77.29
2018-09-13T07:33:26.775Z,76.80
2018-09-13T07:35:55.249Z,78.98
2018-09-13T07:38:24.606Z,78.63
2018-09-13T07:40:53.734Z,76.52
2018-09-13T07:43:22.351Z,74.92
2018-09-13T07:45:50.995Z,74.21
2018-09-13T07:48:20.436Z,70.05
2018-09-13T07:50:48.926Z,70.47
2018-09-13T07:53:17.488Z,66.93
2018-09-13T07:55:46.033Z,65.15
2018-09-13T07:58:14.609Z,64.44
2018-09-13T08:00:43.126Z,61.85
2018-09-13T08:03:12.346Z,62.94
2018-09-13T08:05:41.578Z,61.55
2018-09-13T08:08:10.137Z,61.33
2018-09-13T08:10:38.701Z,56.34
2018-09-13T08:13:07.270Z,57.65
2018-09-13T08:15:35.831Z,57.09
2018-09-13T08:18:04.544Z,59.72
2018-09-13T08:20:33.332Z,59.52
2018-09-13T08:23:02.503Z,60.71
2018-09-13T08:25:31.521Z,62.61
2018-09-13T08:28:00.177Z,61.58
2018-09-13T08:30:28.692Z,61.90
2018-09-13T08:32:58.413Z,64.34
2018-09-13T08:35:27.941Z,64.63
2018-09-13T08:37:57.198Z,63.55
2018-09-13T08:40:25.795Z,65.30
2018-09-13T08:42:54.447Z,65.98
2018-09-13T08:45:23.164Z,63.78
2018-09-13T08:47:52.389Z,64.36
2018-09-13T08:50:20.921Z,67.27
2018-09-13T08:52:50.373Z,65.65
2018-09-13T08:55:19.081Z,66.61
2018-09-13T08:57:47.654Z,64.06
2018-09-13T09:00:16.211Z,62.88
2018-09-13T09:02:44.687Z,67.75
2018-09-13T09:05:13.400Z,67.42
2018-09-13T09:07:42.170Z,65.57
2018-09-13T09:10:10.649Z,63.02
2018-09-13T09:12:39.132Z,65.36
2018-09-13T09:15:07.632Z,65.98
2018-09-13T09:17:36.251Z,64.43
2018-09-13T09:20:04.877Z,65.19
2018-09-13T09:22:33.404Z,62.94
2018-09-13T09:25:02.557Z,66.95
2018-09-13T09:27:31.175Z,65.94
2018-09-13T09:29:59.721Z,66.28
2018-09-13T09:32:28.769Z,67.20
2018-09-13T09:34:57.315Z,67.00
2018-09-13T09:37:26.999Z,68.96
2018-09-13T09:39:55.540Z,69.01
2018-09-13T09:42:24.903Z,64.53
2018-09-13T09:44:55.057Z,63.73
2018-09-13T09:47:23.556Z,64.87
2018-09-13T09:49:52.168Z,64.16
2018-09-13T09:52:21.619Z,64.92
2018-09-13T09:54:50.088Z,65.66
2018-09-13T09:57:18.641Z,64.08
2018-09-13T09:59:47.244Z,64.97
2018-09-13T10:02:21.831Z,65.61
2018-09-13T10:04:50.696Z,64.75
2018-09-13T10:07:20.632Z,62.36
2018-09-13T10:09:49.606Z,61.49
2018-09-13T10:12:18.163Z,61.92
2018-09-13T10:14:51.991Z,61.83
2018-09-13T10:17:25.899Z,63.92
2018-09-13T10:19:59.652Z,63.85
2018-09-13T10:22:33.512Z,61.82
2018-09-13T10:25:08.066Z,63.55
2018-09-13T10:27:42.708Z,62.36
2018-09-13T10:30:16.506Z,63.48
2018-09-13T10:32:50.233Z,60.84
2018-09-13T10:35:23.963Z,61.28
2018-09-13T10:37:58.645Z,60.97
2018-09-13T10:40:32.562Z,61.76
2018-09-13T10:43:06.395Z,61.20
2018-09-13T10:45:40.804Z,62.92
2018-09-13T10:48:14.975Z,64.57
2018-09-13T10:52:50.608Z,63.88
2018-09-13T10:55:20.114Z,61.51
2018-09-13T10:57:48.920Z,60.17
2018-09-13T11:00:17.472Z,59.27
2018-09-13T11:02:46.116Z,58.24
2018-09-13T11:05:14.858Z,59.67
2018-09-13T11:07:43.499Z,58.80
2018-09-13T11:10:12.058Z,59.84
2018-09-13T11:12:45.729Z,58.37
2018-09-13T11:15:24.152Z,60.27
2018-09-13T11:17:54.456Z,60.86
2018-09-13T11:20:22.958Z,59.95
2018-09-13T11:22:54.509Z,59.22
2018-09-13T11:25:54.021Z,59.86
2018-09-13T11:28:22.561Z,58.70
2018-09-13T11:30:56.205Z,59.68
2018-09-13T11:33:24.700Z,58.62
2018-09-13T11:35:53.249Z,59.34
2018-09-13T11:38:21.864Z,59.35
2018-09-13T11:40:50.552Z,58.95
2018-09-13T11:43:19.029Z,59.94
2018-09-13T11:45:48.300Z,60.11
2018-09-13T11:48:16.921Z,59.66
2018-09-13T11:50:45.562Z,60.66
2018-09-13T11:53:14.127Z,62.09
2018-09-13T11:55:44.146Z,61.72
2018-09-13T11:58:14.952Z,60.69
2018-09-13T12:00:43.608Z,60.66
2018-09-13T12:03:13.203Z,61.29
2018-09-13T12:05:42.274Z,62.21
2018-09-13T12:08:10.801Z,62.30
2018-09-13T12:10:39.833Z,62.40
2018-09-13T12:13:17.871Z,62.70
2018-09-13T12:15:46.704Z,62.65
2018-09-13T12:18:15.289Z,63.21
2018-09-13T12:20:43.907Z,61.53
2018-09-13T12:23:12.519Z,60.68
2018-09-13T12:25:41.068Z,59.27
2018-09-13T12:28:09.660Z,60.82
2018-09-13T12:30:38.164Z,59.80
2018-09-13T12:33:06.644Z,59.93
2018-09-13T12:35:37.381Z,59.71
2018-09-13T12:38:08.156Z,58.33
2018-09-13T12:40:41.412Z,59.64
2018-09-13T12:43:13.125Z,61.46
2018-09-13T12:45:42.670Z,60.95
2018-09-13T12:48:11.228Z,62.48
2018-09-13T12:50:39.829Z,62.95
2018-09-13T12:53:08.397Z,61.06
2018-09-13T12:55:42.288Z,62.50
2018-09-13T12:58:10.759Z,62.98
2018-09-13T13:00:39.379Z,62.92
2018-09-13T13:03:07.927Z,64.31
2018-09-13T13:05:37.394Z,65.09
2018-09-13T13:08:05.903Z,65.54
2018-09-13T13:10:34.494Z,64.63
2018-09-13T13:13:03.003Z,62.88
2018-09-13T13:15:32.258Z,63.18
2018-09-13T13:18:00.833Z,63.06
2018-09-13T13:20:29.977Z,63.61
2018-09-13T13:22:59.357Z,65.89
2018-09-13T13:25:27.939Z,64.91
2018-09-13T13:27:57.281Z,63.74
2018-09-13T13:30:26.111Z,64.23
2018-09-13T13:32:54.746Z,65.38
2018-09-13T13:35:23.248Z,63.56
2018-09-13T13:37:52.330Z,62.92
2018-09-13T13:40:21.084Z,62.60
2018-09-13T13:42:49.655Z,63.60
2018-09-13T13:45:18.838Z,63.88
2018-09-13T13:47:47.335Z,63.32
2018-09-13T13:50:15.824Z,62.91
2018-09-13T13:52:45.015Z,63.50
2018-09-13T13:55:13.739Z,65.59
2018-09-13T13:57:42.326Z,66.63
2018-09-13T14:00:11.676Z,69.18
2018-09-13T14:02:40.338Z,71.62
2018-09-13T14:05:08.907Z,70.76
2018-09-13T14:07:37.440Z,70.79
2018-09-13T14:10:06.150Z,69.53
2018-09-13T14:12:34.738Z,71.96
2018-09-13T14:15:03.232Z,70.87
2018-09-13T14:17:31.751Z,74.71
2018-09-13T14:20:00.289Z,70.08
2018-09-13T14:22:29.104Z,72.90
2018-09-13T14:24:57.689Z,70.79
2018-09-13T14:27:26.255Z,68.25
2018-09-13T14:29:54.828Z,70.86
2018-09-13T14:32:23.969Z,73.44
2018-09-13T14:34:52.475Z,72.07
2018-09-13T14:37:20.967Z,72.12
2018-09-13T14:39:49.557Z,72.13
2018-09-13T14:42:18.091Z,75.11
2018-09-13T14:44:46.662Z,73.09
2018-09-13T14:47:15.165Z,75.35
2018-09-13T14:49:43.817Z,76.27
2018-09-13T14:52:12.363Z,75.89
2018-09-13T14:54:40.884Z,77.69
2018-09-13T14:57:09.712Z,76.33
2018-09-13T14:59:38.224Z,77.21
2018-09-13T15:02:06.751Z,76.95
2018-09-13T15:04:35.609Z,78.18
2018-09-13T15:07:04.365Z,78.16
2018-09-13T15:09:33.312Z,76.96
2018-09-13T15:12:01.964Z,76.42
2018-09-13T15:14:30.585Z,76.69
2018-09-13T15:16:59.133Z,75.53
2018-09-13T15:19:27.737Z,74.39
2018-09-13T15:21:56.384Z,79.97
2018-09-13T15:24:25.041Z,79.48
2018-09-13T15:26:53.518Z,77.52
2018-09-13T15:29:22.012Z,79.31
2018-09-13T15:31:51.335Z,76.73
2018-09-13T15:34:20.059Z,75.70
2018-09-13T15:36:48.584Z,77.20
2018-09-13T15:39:17.222Z,77.69
2018-09-13T15:41:45.737Z,75.83
2018-09-13T15:44:14.473Z,80.06
2018-09-13T15:46:42.999Z,80.46
2018-09-13T15:49:11.614Z,80.35
2018-09-13T15:51:40.115Z,81.07
2018-09-13T15:54:08.728Z,81.04
2018-09-13T15:56:37.368Z,82.93
2018-09-13T15:59:06.270Z,80.84
2018-09-13T16:01:34.816Z,79.11
2018-09-13T16:04:03.394Z,77.74
2018-09-13T16:06:32.661Z,77.90
2018-09-13T16:09:02.564Z,75.62
2018-09-13T16:11:32.009Z,73.63
2018-09-13T16:14:02.216Z,73.23
2018-09-13T16:16:34.825Z,73.25
2018-09-13T16:30:16.374Z,76.79
2018-09-13T16:32:46.900Z,77.93
2018-09-13T16:35:15.870Z,76.58
2018-09-13T16:37:53.533Z,79.78
2018-09-13T16:40:27.401Z,79.97
2018-09-13T16:43:01.778Z,80.74
2018-09-13T16:45:32.343Z,83.17
2018-09-13T16:48:03.432Z,85.41
2018-09-13T16:50:33.157Z,86.66
2018-09-13T16:53:03.958Z,87.07
2018-09-13T16:55:34.866Z,88.87
2018-09-13T16:58:04.402Z,88.00
2018-09-13T17:00:34.839Z,88.42
2018-09-13T17:03:04.970Z,88.49
2018-09-13T17:05:34.757Z,89.45
2018-09-13T17:08:08.622Z,89.31
2018-09-13T17:10:39.053Z,91.22
2018-09-13T17:13:09.160Z,91.67
2018-09-13T17:15:38.729Z,91.69
2018-09-13T17:18:11.629Z,91.47
2018-09-13T17:20:42.395Z,91.04
2018-09-13T17:23:15.216Z,91.48
2018-09-13T17:25:54.291Z,91.36
2018-09-13T17:28:29.192Z,92.77
2018-09-13T17:30:59.493Z,90.74
2018-09-13T17:33:34.756Z,91.74
2018-09-13T17:36:09.006Z,92.07
2018-09-13T17:38:45.824Z,91.92
2018-09-13T17:41:17.356Z,91.52
2018-09-13T17:44:01.220Z,92.29
2018-09-13T17:46:47.105Z,92.22
2018-09-13T17:49:35.711Z,91.38
2018-09-13T17:52:08.708Z,91.27
2018-09-13T17:57:43.591Z,89.51
2018-09-13T18:00:14.181Z,90.38
2018-09-13T18:02:43.358Z,90.04
2018-09-13T18:05:11.934Z,90.10
2018-09-13T18:07:40.531Z,89.60
2018-09-13T18:10:09.477Z,89.93
2018-09-13T18:12:38.203Z,88.96
2018-09-13T18:15:08.016Z,89.93
2018-09-13T18:17:36.814Z,90.33
2018-09-13T18:20:05.413Z,90.58
2018-09-13T18:22:34.404Z,90.67
2018-09-13T18:25:03.072Z,89.74
2018-09-13T18:27:31.842Z,88.25
2018-09-13T18:30:00.423Z,89.33
2018-09-13T18:32:29.065Z,87.88
2018-09-13T18:34:57.642Z,88.25
2018-09-13T18:37:26.147Z,88.66
2018-09-13T18:39:54.898Z,86.18
2018-09-13T18:42:24.743Z,85.29
2018-09-13T18:44:53.455Z,84.81
2018-09-13T18:47:21.972Z,84.54
2018-09-13T18:49:51.290Z,83.31
2018-09-13T18:52:20.625Z,82.56
2018-09-13T18:54:49.788Z,82.39
2018-09-13T18:57:19.095Z,81.83
2018-09-13T18:59:48.244Z,82.88
2018-09-13T19:02:16.756Z,82.16
2018-09-13T19:04:45.993Z,83.61
2018-09-13T19:07:15.103Z,84.88
2018-09-13T19:09:44.313Z,84.65
2018-09-13T19:12:13.195Z,85.02
2018-09-13T19:14:41.829Z,87.21
2018-09-13T19:17:10.409Z,88.35
2018-09-13T19:19:38.899Z,89.41
2018-09-13T19:22:08.356Z,90.09
2018-09-13T19:24:37.312Z,89.74
2018-09-13T19:27:05.906Z,89.84
2018-09-13T19:29:34.419Z,90.12
2018-09-13T19:32:02.929Z,90.51
2018-09-13T19:34:32.875Z,91.14
2018-09-13T19:37:02.200Z,90.79
2018-09-13T19:39:30.732Z,90.47
2018-09-13T19:42:00.042Z,90.08
2018-09-13T19:44:28.523Z,92.10
2018-09-13T19:46:58.334Z,92.10
2018-09-13T19:49:26.883Z,92.00
2018-09-13T19:51:55.470Z,91.63
2018-09-13T19:54:23.979Z,90.26
2018-09-13T19:56:52.763Z,90.86
2018-09-13T19:59:21.423Z,92.70
2018-09-13T20:01:51.434Z,92.69
2018-09-13T20:04:20.100Z,93.08
2018-09-13T20:06:48.952Z,90.50
2018-09-13T20:09:17.579Z,89.97
2018-09-13T20:11:47.444Z,90.30
2018-09-13T20:14:16.650Z,90.27
2018-09-13T20:16:45.319Z,90.24
2018-09-13T20:19:14.541Z,89.24
2018-09-13T20:21:43.176Z,89.94
2018-09-13T20:24:11.684Z,89.20
2018-09-13T20:26:40.303Z,89.92
2018-09-13T20:29:09.365Z,89.14
2018-09-13T20:31:37.916Z,89.04
2018-09-13T20:34:06.610Z,88.38
2018-09-13T20:36:35.175Z,88.11
2018-09-13T20:39:04.737Z,88.16
2018-09-13T20:41:34.066Z,88.49
2018-09-13T20:44:02.643Z,88.32
2018-09-13T20:47:01.571Z,89.00
2018-09-13T20:49:30.973Z,88.35
2018-09-13T20:51:59.548Z,88.62
2018-09-13T20:54:28.059Z,89.05
2018-09-13T20:56:57.630Z,88.92
2018-09-13T20:59:26.117Z,88.70
2018-09-13T21:01:55.894Z,88.54
2018-09-13T21:04:24.993Z,89.41
2018-09-13T21:06:53.631Z,88.92
2018-09-13T21:09:22.726Z,89.20
2018-09-13T21:11:51.281Z,89.32
2018-09-13T21:14:20.607Z,89.85
2018-09-13T21:16:49.745Z,90.53
2018-09-13T21:19:18.825Z,92.13
2018-09-13T21:21:48.412Z,92.75
2018-09-13T21:24:17.062Z,92.70
2018-09-13T21:26:45.575Z,91.15
2018-09-13T21:29:14.121Z,90.95
2018-09-13T21:31:42.963Z,90.05
2018-09-13T21:34:11.747Z,90.10
2018-09-13T21:36:40.266Z,90.02
2018-09-13T21:39:10.495Z,91.28
2018-09-13T21:41:38.967Z,91.07
2018-09-13T21:44:07.685Z,90.15
2018-09-13T21:46:36.159Z,91.66
2018-09-13T21:49:04.664Z,90.38
2018-09-13T21:51:33.199Z,91.04
2018-09-13T21:54:01.706Z,91.42
2018-09-13T21:56:30.257Z,92.49
2018-09-13T21:58:58.752Z,92.22
2018-09-13T22:01:27.299Z,92.10
2018-09-13T22:03:55.875Z,91.31
2018-09-13T22:06:25.083Z,91.50
2018-09-13T22:08:54.035Z,91.80
2018-09-13T22:11:22.592Z,90.48
2018-09-13T22:13:51.692Z,91.17
2018-09-13T22:16:20.231Z,90.93
2018-09-13T22:18:48.782Z,90.99
2018-09-13T22:21:17.575Z,90.88
2018-09-13T22:23:46.087Z,90.73
2018-09-13T22:26:14.855Z,90.86
2018-09-13T22:28:43.359Z,91.36
2018-09-13T22:31:11.879Z,92.26
2018-09-13T22:33:40.416Z,91.96
2018-09-13T22:36:08.887Z,91.43
2018-09-13T22:38:37.707Z,91.83
2018-09-13T22:41:06.347Z,91.84
2018-09-13T22:43:40.076Z,92.59
2018-09-13T22:46:08.578Z,93.43
2018-09-13T22:48:37.195Z,92.17
2018-09-13T22:51:05.717Z,92.99
2018-09-13T22:53:35.005Z,92.72
2018-09-13T22:56:03.424Z,92.92
2018-09-13T22:58:32.652Z,91.50
2018-09-13T23:01:01.264Z,91.39
2018-09-13T23:03:30.437Z,91.81
2018-09-13T23:05:58.935Z,91.64
2018-09-13T23:08:27.521Z,91.70
2018-09-13T23:10:56.157Z,91.85
2018-09-13T23:13:24.980Z,91.91
2018-09-13T23:15:53.574Z,91.41
2018-09-13T23:18:22.096Z,91.58
2018-09-13T23:20:50.704Z,92.92
2018-09-13T23:23:19.432Z,91.47
2018-09-13T23:25:47.992Z,93.87
2018-09-13T23:28:16.717Z,93.48
2018-09-13T23:30:46.255Z,93.29
2018-09-13T23:33:14.927Z,92.19
2018-09-13T23:35:43.450Z,93.33
2018-09-13T23:38:11.959Z,93.79
2018-09-13T23:40:41.110Z,91.91
2018-09-13T23:43:09.612Z,93.99
2018-09-13T23:45:38.116Z,92.84
2018-09-13T23:48:06.608Z,92.68
2018-09-13T23:50:35.140Z,91.84
2018-09-13T23:53:03.694Z,91.41
2018-09-13T23:55:32.179Z,93.08
2018-09-13T23:58:01.539Z,92.39
